sensor_id;sensor_type;location;lat;lon;timestamp;pressure;altitude;pressure_sealevel;temperature
61703;BMP280;47622;47.726;3.298;2023-03-01T00:01:49;99850.56;;;-1.34
61703;BMP280;47622;47.726;3.298;2023-03-01T00:04:15;99847.59;;;-1.38
61703;BMP280;47622;47.726;3.298;2023-03-01T00:06:42;99845.97;;;-1.39
61703;BMP280;47622;47.726;3.298;2023-03-01T00:09:12;99839.84;;;-1.44
61703;BMP280;47622;47.726;3.298;2023-03-01T00:11:37;99844.81;;;-1.43
61703;BMP280;47622;47.726;3.298;2023-03-01T00:14:03;99837.06;;;-1.49
61703;BMP280;47622;47.726;3.298;2023-03-01T00:16:33;99848.34;;;-1.50
61703;BMP280;47622;47.726;3.298;2023-03-01T00:18:59;99845.97;;;-1.52
61703;BMP280;47622;47.726;3.298;2023-03-01T00:21:26;99844.34;;;-1.66
61703;BMP280;47622;47.726;3.298;2023-03-01T00:23:53;99837.03;;;-1.69
61703;BMP280;47622;47.726;3.298;2023-03-01T00:26:20;99830.50;;;-1.65
61703;BMP280;47622;47.726;3.298;2023-03-01T00:28:46;99835.28;;;-1.62
61703;BMP280;47622;47.726;3.298;2023-03-01T00:31:15;99823.41;;;-1.63
61703;BMP280;47622;47.726;3.298;2023-03-01T00:33:41;99818.06;;;-1.68
61703;BMP280;47622;47.726;3.298;2023-03-01T00:36:07;99817.84;;;-1.73
61703;BMP280;47622;47.726;3.298;2023-03-01T00:38:41;99806.38;;;-1.77
61703;BMP280;47622;47.726;3.298;2023-03-01T00:41:12;99801.66;;;-1.80
61703;BMP280;47622;47.726;3.298;2023-03-01T00:43:39;99802.81;;;-1.83
61703;BMP280;47622;47.726;3.298;2023-03-01T00:46:07;99794.47;;;-1.92
61703;BMP280;47622;47.726;3.298;2023-03-01T00:48:33;99803.22;;;-1.86
61703;BMP280;47622;47.726;3.298;2023-03-01T00:51:26;99799.41;;;-1.90
61703;BMP280;47622;47.726;3.298;2023-03-01T00:53:53;99798.00;;;-1.93
61703;BMP280;47622;47.726;3.298;2023-03-01T00:56:19;99786.56;;;-1.97
61703;BMP280;47622;47.726;3.298;2023-03-01T00:58:45;99785.94;;;-1.99
61703;BMP280;47622;47.726;3.298;2023-03-01T01:01:16;99786.53;;;-2.03
61703;BMP280;47622;47.726;3.298;2023-03-01T01:03:55;99785.34;;;-2.08
61703;BMP280;47622;47.726;3.298;2023-03-01T01:06:26;99781.97;;;-2.08
61703;BMP280;47622;47.726;3.298;2023-03-01T01:08:53;99773.47;;;-2.09
61703;BMP280;47622;47.726;3.298;2023-03-01T01:11:20;99774.25;;;-2.08
61703;BMP280;47622;47.726;3.298;2023-03-01T01:13:46;99776.03;;;-2.09
61703;BMP280;47622;47.726;3.298;2023-03-01T01:16:13;99777.81;;;-2.09
61703;BMP280;47622;47.726;3.298;2023-03-01T01:18:39;99773.47;;;-2.15
61703;BMP280;47622;47.726;3.298;2023-03-01T01:21:08;99776.63;;;-2.13
61703;BMP280;47622;47.726;3.298;2023-03-01T01:23:34;99771.09;;;-2.10
61703;BMP280;47622;47.726;3.298;2023-03-01T01:26:22;99768.31;;;-2.15
61703;BMP280;47622;47.726;3.298;2023-03-01T01:28:48;99757.63;;;-2.25
61703;BMP280;47622;47.726;3.298;2023-03-01T01:31:14;99756.78;;;-2.33
61703;BMP280;47622;47.726;3.298;2023-03-01T01:33:40;99754.59;;;-2.36
61703;BMP280;47622;47.726;3.298;2023-03-01T01:36:06;99756.00;;;-2.40
61703;BMP280;47622;47.726;3.298;2023-03-01T01:38:33;99751.22;;;-2.43
61703;BMP280;47622;47.726;3.298;2023-03-01T01:40:59;99749.66;;;-2.44
61703;BMP280;47622;47.726;3.298;2023-03-01T01:43:26;99747.66;;;-2.42
61703;BMP280;47622;47.726;3.298;2023-03-01T01:46:02;99745.31;;;-2.37
61703;BMP280;47622;47.726;3.298;2023-03-01T01:48:37;99753.22;;;-2.31
61703;BMP280;47622;47.726;3.298;2023-03-01T01:51:13;99755.22;;;-2.34
61703;BMP280;47622;47.726;3.298;2023-03-01T01:53:39;99750.88;;;-2.33
61703;BMP280;47622;47.726;3.298;2023-03-01T01:56:08;99747.31;;;-2.39
61703;BMP280;47622;47.726;3.298;2023-03-01T01:58:34;99746.91;;;-2.36
61703;BMP280;47622;47.726;3.298;2023-03-01T02:01:01;99755.59;;;-2.37
61703;BMP280;47622;47.726;3.298;2023-03-01T02:03:31;99757.16;;;-2.36
61703;BMP280;47622;47.726;3.298;2023-03-01T02:08:45;99749.28;;;-2.34
61703;BMP280;47622;47.726;3.298;2023-03-01T02:11:13;99756.78;;;-2.33
61703;BMP280;47622;47.726;3.298;2023-03-01T02:13:40;99754.00;;;-2.38
61703;BMP280;47622;47.726;3.298;2023-03-01T02:16:11;99756.19;;;-2.35
61703;BMP280;47622;47.726;3.298;2023-03-01T02:18:39;99751.66;;;-2.33
61703;BMP280;47622;47.726;3.298;2023-03-01T02:24:32;99744.53;;;-2.37
61703;BMP280;47622;47.726;3.298;2023-03-01T02:27:00;99739.97;;;-2.35
61703;BMP280;47622;47.726;3.298;2023-03-01T02:29:26;99738.81;;;-2.33
61703;BMP280;47622;47.726;3.298;2023-03-01T02:31:54;99738.81;;;-2.33
61703;BMP280;47622;47.726;3.298;2023-03-01T02:34:23;99737.03;;;-2.39
61703;BMP280;47622;47.726;3.298;2023-03-01T02:37:01;99731.91;;;-2.32
61703;BMP280;47622;47.726;3.298;2023-03-01T02:39:42;99728.78;;;-2.27
61703;BMP280;47622;47.726;3.298;2023-03-01T02:42:18;99721.63;;;-2.32
61703;BMP280;47622;47.726;3.298;2023-03-01T02:44:45;99717.09;;;-2.37
61703;BMP280;47622;47.726;3.298;2023-03-01T02:47:11;99727.13;;;-2.42
61703;BMP280;47622;47.726;3.298;2023-03-01T02:49:37;99720.06;;;-2.40
61703;BMP280;47622;47.726;3.298;2023-03-01T02:57:17;99706.44;;;-2.34
61703;BMP280;47622;47.726;3.298;2023-03-01T02:59:43;99704.25;;;-2.37
61703;BMP280;47622;47.726;3.298;2023-03-01T03:02:24;99705.03;;;-2.36
61703;BMP280;47622;47.726;3.298;2023-03-01T03:07:41;99700.09;;;-2.44
61703;BMP280;47622;47.726;3.298;2023-03-01T03:10:13;99693.41;;;-2.39
61703;BMP280;47622;47.726;3.298;2023-03-01T03:12:40;99698.31;;;-2.37
61703;BMP280;47622;47.726;3.298;2023-03-01T03:15:07;99686.84;;;-2.48
61703;BMP280;47622;47.726;3.298;2023-03-01T03:17:39;99686.06;;;-2.48
61703;BMP280;47622;47.726;3.298;2023-03-01T03:20:06;99692.75;;;-2.54
61703;BMP280;47622;47.726;3.298;2023-03-01T03:22:39;99684.44;;;-2.56
61703;BMP280;47622;47.726;3.298;2023-03-01T03:25:09;99697.50;;;-2.51
61703;BMP280;47622;47.726;3.298;2023-03-01T03:27:36;99691.22;;;-2.42
61703;BMP280;47622;47.726;3.298;2023-03-01T03:30:04;99693.19;;;-2.44
61703;BMP280;47622;47.726;3.298;2023-03-01T03:32:36;99684.66;;;-2.51
61703;BMP280;47622;47.726;3.298;2023-03-01T03:35:03;99681.88;;;-2.56
61703;BMP280;47622;47.726;3.298;2023-03-01T03:37:43;99682.09;;;-2.51
61703;BMP280;47622;47.726;3.298;2023-03-01T03:40:35;99683.28;;;-2.53
61703;BMP280;47622;47.726;3.298;2023-03-01T03:43:03;99672.66;;;-2.50
61703;BMP280;47622;47.726;3.298;2023-03-01T03:45:29;99662.75;;;-2.53
61703;BMP280;47622;47.726;3.298;2023-03-01T03:47:54;99659.00;;;-2.57
61703;BMP280;47622;47.726;3.298;2023-03-01T03:50:20;99669.44;;;-2.59
61703;BMP280;47622;47.726;3.298;2023-03-01T03:52:46;99671.81;;;-2.57
61703;BMP280;47622;47.726;3.298;2023-03-01T03:55:12;99670.03;;;-2.64
61703;BMP280;47622;47.726;3.298;2023-03-01T03:57:41;99669.25;;;-2.64
61703;BMP280;47622;47.726;3.298;2023-03-01T04:00:09;99661.97;;;-2.54
61703;BMP280;47622;47.726;3.298;2023-03-01T04:02:42;99657.19;;;-2.64
61703;BMP280;47622;47.726;3.298;2023-03-01T04:05:09;99655.53;;;-2.78
61703;BMP280;47622;47.726;3.298;2023-03-01T04:07:36;99658.28;;;-2.79
61703;BMP280;47622;47.726;3.298;2023-03-01T04:10:04;99659.50;;;-2.75
61703;BMP280;47622;47.726;3.298;2023-03-01T04:12:30;99663.50;;;-2.66
61703;BMP280;47622;47.726;3.298;2023-03-01T04:14:55;99648.84;;;-2.72
61703;BMP280;47622;47.726;3.298;2023-03-01T04:17:21;99647.28;;;-2.73
61703;BMP280;47622;47.726;3.298;2023-03-01T04:19:46;99651.19;;;-2.77
61703;BMP280;47622;47.726;3.298;2023-03-01T04:22:14;99648.84;;;-2.72
61703;BMP280;47622;47.726;3.298;2023-03-01T04:24:44;99650.59;;;-2.79
61703;BMP280;47622;47.726;3.298;2023-03-01T04:27:11;99652.03;;;-2.70
61703;BMP280;47622;47.726;3.298;2023-03-01T04:29:37;99655.94;;;-2.74
61703;BMP280;47622;47.726;3.298;2023-03-01T04:32:03;99653.38;;;-2.74
61703;BMP280;47622;47.726;3.298;2023-03-01T04:34:29;99655.59;;;-2.71
61703;BMP280;47622;47.726;3.298;2023-03-01T04:36:55;99657.16;;;-2.70
61703;BMP280;47622;47.726;3.298;2023-03-01T04:39:21;99652.84;;;-2.63
61703;BMP280;47622;47.726;3.298;2023-03-01T04:41:47;99655.44;;;-2.56
61703;BMP280;47622;47.726;3.298;2023-03-01T04:44:13;99646.78;;;-2.49
61703;BMP280;47622;47.726;3.298;2023-03-01T04:46:38;99648.72;;;-2.51
61703;BMP280;47622;47.726;3.298;2023-03-01T04:49:04;99647.78;;;-2.50
61703;BMP280;47622;47.726;3.298;2023-03-01T04:51:30;99650.22;;;-2.28
61703;BMP280;47622;47.726;3.298;2023-03-01T04:53:58;99638.50;;;-2.44
61703;BMP280;47622;47.726;3.298;2023-03-01T04:56:24;99635.53;;;-2.35
61703;BMP280;47622;47.726;3.298;2023-03-01T04:58:49;99639.50;;;-2.39
61703;BMP280;47622;47.726;3.298;2023-03-01T05:01:20;99645.06;;;-2.28
61703;BMP280;47622;47.726;3.298;2023-03-01T05:03:50;99646.25;;;-2.24
61703;BMP280;47622;47.726;3.298;2023-03-01T05:06:17;99646.19;;;-2.44
61703;BMP280;47622;47.726;3.298;2023-03-01T05:08:44;99651.53;;;-2.33
61703;BMP280;47622;47.726;3.298;2023-03-01T05:11:10;99643.06;;;-2.40
61703;BMP280;47622;47.726;3.298;2023-03-01T05:13:37;99649.72;;;-2.45
61703;BMP280;47622;47.726;3.298;2023-03-01T05:16:04;99649.72;;;-2.45
61703;BMP280;47622;47.726;3.298;2023-03-01T05:18:32;99637.91;;;-2.40
61703;BMP280;47622;47.726;3.298;2023-03-01T05:21:07;99639.31;;;-2.30
61703;BMP280;47622;47.726;3.298;2023-03-01T05:23:34;99625.66;;;-2.38
61703;BMP280;47622;47.726;3.298;2023-03-01T05:26:01;99630.41;;;-2.35
61703;BMP280;47622;47.726;3.298;2023-03-01T05:28:29;99631.59;;;-2.37
61703;BMP280;47622;47.726;3.298;2023-03-01T05:30:56;99619.34;;;-2.48
61703;BMP280;47622;47.726;3.298;2023-03-01T05:33:22;99626.06;;;-2.41
61703;BMP280;47622;47.726;3.298;2023-03-01T05:35:49;99626.25;;;-2.36
61703;BMP280;47622;47.726;3.298;2023-03-01T05:38:15;99614.63;;;-2.31
61703;BMP280;47622;47.726;3.298;2023-03-01T05:40:43;99621.75;;;-2.34
61703;BMP280;47622;47.726;3.298;2023-03-01T05:43:09;99615.41;;;-2.31
61703;BMP280;47622;47.726;3.298;2023-03-01T05:45:37;99613.41;;;-2.36
61703;BMP280;47622;47.726;3.298;2023-03-01T05:48:04;99620.56;;;-2.24
61703;BMP280;47622;47.726;3.298;2023-03-01T05:50:33;99619.41;;;-2.28
61703;BMP280;47622;47.726;3.298;2023-03-01T05:53:04;99618.97;;;-2.39
61703;BMP280;47622;47.726;3.298;2023-03-01T05:55:35;99602.97;;;-2.34
61703;BMP280;47622;47.726;3.298;2023-03-01T05:58:02;99607.28;;;-2.41
61703;BMP280;47622;47.726;3.298;2023-03-01T06:00:29;99608.06;;;-2.54
61703;BMP280;47622;47.726;3.298;2023-03-01T06:02:56;99596.44;;;-2.50
61703;BMP280;47622;47.726;3.298;2023-03-01T06:05:22;99602.16;;;-2.48
61703;BMP280;47622;47.726;3.298;2023-03-01T06:07:48;99593.88;;;-2.50
61703;BMP280;47622;47.726;3.298;2023-03-01T06:10:16;99594.47;;;-2.54
61703;BMP280;47622;47.726;3.298;2023-03-01T06:12:42;99596.81;;;-2.53
61703;BMP280;47622;47.726;3.298;2023-03-01T06:15:11;99588.34;;;-2.40
61703;BMP280;47622;47.726;3.298;2023-03-01T06:17:38;99578.69;;;-2.45
61703;BMP280;47622;47.726;3.298;2023-03-01T06:20:08;99588.16;;;-2.39
61703;BMP280;47622;47.726;3.298;2023-03-01T06:22:35;99574.31;;;-2.51
61703;BMP280;47622;47.726;3.298;2023-03-01T06:25:00;99577.09;;;-2.46
61703;BMP280;47622;47.726;3.298;2023-03-01T06:27:26;99569.38;;;-2.52
61703;BMP280;47622;47.726;3.298;2023-03-01T06:29:52;99575.72;;;-2.55
61703;BMP280;47622;47.726;3.298;2023-03-01T06:32:18;99568.78;;;-2.41
61703;BMP280;47622;47.726;3.298;2023-03-01T06:34:44;99574.13;;;-2.43
61703;BMP280;47622;47.726;3.298;2023-03-01T06:37:09;99569.38;;;-2.52
61703;BMP280;47622;47.726;3.298;2023-03-01T06:39:35;99573.56;;;-2.45
61703;BMP280;47622;47.726;3.298;2023-03-01T06:42:00;99573.97;;;-2.21
61703;BMP280;47622;47.726;3.298;2023-03-01T06:44:26;99576.16;;;-2.18
61703;BMP280;47622;47.726;3.298;2023-03-01T06:46:52;99576.34;;;-2.20
61703;BMP280;47622;47.726;3.298;2023-03-01T06:49:17;99578.31;;;-2.15
61703;BMP280;47622;47.726;3.298;2023-03-01T06:51:44;99581.47;;;-2.00
61703;BMP280;47622;47.726;3.298;2023-03-01T06:54:10;99586.38;;;-1.72
61703;BMP280;47622;47.726;3.298;2023-03-01T06:56:36;99578.19;;;-1.36
61703;BMP280;47622;47.726;3.298;2023-03-01T06:59:01;99587.72;;;-0.91
61703;BMP280;47622;47.726;3.298;2023-03-01T07:01:29;99584.31;;;-0.47
61703;BMP280;47622;47.726;3.298;2023-03-01T07:03:54;99579.56;;;-0.18
61703;BMP280;47622;47.726;3.298;2023-03-01T07:06:21;99592.16;;;0.33
61703;BMP280;47622;47.726;3.298;2023-03-01T07:08:47;99584.25;;;0.46
61703;BMP280;47622;47.726;3.298;2023-03-01T07:11:13;99581.91;;;0.63
61703;BMP280;47622;47.726;3.298;2023-03-01T07:13:38;99573.56;;;-0.12
61703;BMP280;47622;47.726;3.298;2023-03-01T07:16:04;99585.75;;;0.36
61703;BMP280;47622;47.726;3.298;2023-03-01T07:18:30;99578.88;;;0.85
61703;BMP280;47622;47.726;3.298;2023-03-01T07:20:56;99585.84;;;1.14
61703;BMP280;47622;47.726;3.298;2023-03-01T07:23:21;99585.38;;;2.06
61703;BMP280;47622;47.726;3.298;2023-03-01T07:25:54;99595.09;;;3.08
61703;BMP280;47622;47.726;3.298;2023-03-01T07:28:20;99589.34;;;4.07
61703;BMP280;47622;47.726;3.298;2023-03-01T07:30:45;99587.41;;;4.19
61703;BMP280;47622;47.726;3.298;2023-03-01T07:33:11;99592.22;;;3.55
61703;BMP280;47622;47.726;3.298;2023-03-01T07:35:37;99592.50;;;4.79
61703;BMP280;47622;47.726;3.298;2023-03-01T07:38:02;99585.97;;;4.77
61703;BMP280;47622;47.726;3.298;2023-03-01T07:40:28;99600.84;;;3.10
61703;BMP280;47622;47.726;3.298;2023-03-01T07:42:57;99592.78;;;3.40
61703;BMP280;47622;47.726;3.298;2023-03-01T07:45:24;99589.09;;;3.19
61703;BMP280;47622;47.726;3.298;2023-03-01T07:47:51;99586.59;;;3.24
61703;BMP280;47622;47.726;3.298;2023-03-01T07:50:17;99588.25;;;3.64
61703;BMP280;47622;47.726;3.298;2023-03-01T07:52:45;99592.41;;;3.31
61703;BMP280;47622;47.726;3.298;2023-03-01T07:55:10;99590.94;;;2.50
61703;BMP280;47622;47.726;3.298;2023-03-01T07:57:36;99595.09;;;2.62
61703;BMP280;47622;47.726;3.298;2023-03-01T08:00:01;99592.31;;;3.26
61703;BMP280;47622;47.726;3.298;2023-03-01T08:02:27;99590.16;;;3.06
61703;BMP280;47622;47.726;3.298;2023-03-01T08:04:53;99597.44;;;3.21
61703;BMP280;47622;47.726;3.298;2023-03-01T08:07:18;99590.50;;;3.10
61703;BMP280;47622;47.726;3.298;2023-03-01T08:09:44;99602.78;;;3.65
61703;BMP280;47622;47.726;3.298;2023-03-01T08:12:10;99591.41;;;3.88
61703;BMP280;47622;47.726;3.298;2023-03-01T08:14:35;99608.25;;;3.85
61703;BMP280;47622;47.726;3.298;2023-03-01T08:17:01;99589.56;;;2.87
61703;BMP280;47622;47.726;3.298;2023-03-01T08:19:28;99586.09;;;2.53
61703;BMP280;47622;47.726;3.298;2023-03-01T08:21:54;99594.38;;;2.95
61703;BMP280;47622;47.726;3.298;2023-03-01T08:24:20;99602.00;;;4.25
61703;BMP280;47622;47.726;3.298;2023-03-01T08:26:46;99593.59;;;5.53
61703;BMP280;47622;47.726;3.298;2023-03-01T08:29:11;99596.34;;;5.36
61703;BMP280;47622;47.726;3.298;2023-03-01T08:31:39;99592.97;;;5.03
61703;BMP280;47622;47.726;3.298;2023-03-01T08:34:08;99597.19;;;5.47
61703;BMP280;47622;47.726;3.298;2023-03-01T08:36:37;99598.69;;;5.05
61703;BMP280;47622;47.726;3.298;2023-03-01T08:39:03;99598.81;;;5.53
61703;BMP280;47622;47.726;3.298;2023-03-01T08:41:29;99605.06;;;6.97
61703;BMP280;47622;47.726;3.298;2023-03-01T08:43:55;99602.66;;;6.75
61703;BMP280;47622;47.726;3.298;2023-03-01T08:46:29;99604.84;;;6.11
61703;BMP280;47622;47.726;3.298;2023-03-01T08:48:55;99597.25;;;6.92
61703;BMP280;47622;47.726;3.298;2023-03-01T08:51:22;99592.19;;;6.35
61703;BMP280;47622;47.726;3.298;2023-03-01T08:53:48;99588.59;;;7.12
61703;BMP280;47622;47.726;3.298;2023-03-01T08:56:14;99595.38;;;7.28
61703;BMP280;47622;47.726;3.298;2023-03-01T08:58:46;99583.88;;;7.55
61703;BMP280;47622;47.726;3.298;2023-03-01T09:01:15;99588.28;;;9.02
61703;BMP280;47622;47.726;3.298;2023-03-01T09:03:42;99576.09;;;9.16
61703;BMP280;47622;47.726;3.298;2023-03-01T09:06:08;99591.59;;;8.45
61703;BMP280;47622;47.726;3.298;2023-03-01T09:08:36;99589.03;;;8.74
61703;BMP280;47622;47.726;3.298;2023-03-01T09:11:04;99585.91;;;9.59
61703;BMP280;47622;47.726;3.298;2023-03-01T09:13:30;99587.22;;;8.69
61703;BMP280;47622;47.726;3.298;2023-03-01T09:15:57;99566.28;;;7.86
61703;BMP280;47622;47.726;3.298;2023-03-01T09:18:23;99567.78;;;8.51
61703;BMP280;47622;47.726;3.298;2023-03-01T09:20:49;99571.00;;;9.54
61703;BMP280;47622;47.726;3.298;2023-03-01T09:23:14;99565.75;;;8.38
61703;BMP280;47622;47.726;3.298;2023-03-01T09:25:40;99553.41;;;8.10
61703;BMP280;47622;47.726;3.298;2023-03-01T09:28:06;99552.63;;;7.34
61703;BMP280;47622;47.726;3.298;2023-03-01T09:30:31;99548.50;;;6.88
61703;BMP280;47622;47.726;3.298;2023-03-01T09:32:57;99562.06;;;6.84
61703;BMP280;47622;47.726;3.298;2023-03-01T09:35:22;99551.81;;;7.24
61703;BMP280;47622;47.726;3.298;2023-03-01T09:37:49;99552.66;;;7.99
61703;BMP280;47622;47.726;3.298;2023-03-01T09:40:27;99557.97;;;8.96
61703;BMP280;47622;47.726;3.298;2023-03-01T09:43:08;99558.16;;;8.76
61703;BMP280;47622;47.726;3.298;2023-03-01T09:45:41;99548.09;;;8.93
61703;BMP280;47622;47.726;3.298;2023-03-01T09:48:20;99544.41;;;8.65
61703;BMP280;47622;47.726;3.298;2023-03-01T09:50:49;99546.63;;;9.59
61703;BMP280;47622;47.726;3.298;2023-03-01T09:53:17;99541.44;;;9.72
61703;BMP280;47622;47.726;3.298;2023-03-01T09:56:24;99538.22;;;9.14
61703;BMP280;47622;47.726;3.298;2023-03-01T09:58:59;99542.06;;;8.64
61703;BMP280;47622;47.726;3.298;2023-03-01T10:04:49;99533.16;;;8.65
61703;BMP280;47622;47.726;3.298;2023-03-01T10:10:28;99524.19;;;7.97
61703;BMP280;47622;47.726;3.298;2023-03-01T10:13:01;99517.41;;;8.41
61703;BMP280;47622;47.726;3.298;2023-03-01T10:15:40;99510.78;;;9.11
61703;BMP280;47622;47.726;3.298;2023-03-01T10:18:13;99512.16;;;10.08
61703;BMP280;47622;47.726;3.298;2023-03-01T10:23:13;99519.19;;;10.91
61703;BMP280;47622;47.726;3.298;2023-03-01T10:25:55;99516.06;;;10.89
61703;BMP280;47622;47.726;3.298;2023-03-01T10:31:25;99502.59;;;10.63
61703;BMP280;47622;47.726;3.298;2023-03-01T10:33:55;99496.47;;;9.46
61703;BMP280;47622;47.726;3.298;2023-03-01T10:36:23;99506.09;;;9.32
61703;BMP280;47622;47.726;3.298;2023-03-01T10:38:52;99500.88;;;10.26
61703;BMP280;47622;47.726;3.298;2023-03-01T10:41:20;99499.53;;;11.30
61703;BMP280;47622;47.726;3.298;2023-03-01T10:43:53;99502.34;;;11.47
61703;BMP280;47622;47.726;3.298;2023-03-01T10:46:31;99498.56;;;10.99
61703;BMP280;47622;47.726;3.298;2023-03-01T10:49:17;99496.06;;;10.93
61703;BMP280;47622;47.726;3.298;2023-03-01T10:51:46;99482.56;;;11.64
61703;BMP280;47622;47.726;3.298;2023-03-01T10:54:32;99484.78;;;10.79
61703;BMP280;47622;47.726;3.298;2023-03-01T10:57:04;99494.28;;;10.89
61703;BMP280;47622;47.726;3.298;2023-03-01T10:59:36;99487.09;;;10.67
61703;BMP280;47622;47.726;3.298;2023-03-01T11:02:18;99483.25;;;9.38
61703;BMP280;47622;47.726;3.298;2023-03-01T11:05:02;99487.31;;;10.05
61703;BMP280;47622;47.726;3.298;2023-03-01T11:07:28;99483.06;;;10.10
61703;BMP280;47622;47.726;3.298;2023-03-01T11:09:55;99476.31;;;8.75
61703;BMP280;47622;47.726;3.298;2023-03-01T11:12:21;99475.63;;;8.41
61703;BMP280;47622;47.726;3.298;2023-03-01T11:14:49;99474.72;;;8.50
61703;BMP280;47622;47.726;3.298;2023-03-01T11:17:25;99473.09;;;9.12
61703;BMP280;47622;47.726;3.298;2023-03-01T11:25:13;99465.91;;;9.23
61703;BMP280;47622;47.726;3.298;2023-03-01T11:27:44;99444.16;;;8.51
61703;BMP280;47622;47.726;3.298;2023-03-01T11:30:38;99444.66;;;9.67
61703;BMP280;47622;47.726;3.298;2023-03-01T11:35:36;99457.22;;;10.35
61703;BMP280;47622;47.726;3.298;2023-03-01T11:38:21;99448.19;;;9.39
61703;BMP280;47622;47.726;3.298;2023-03-01T11:40:52;99440.66;;;8.61
61703;BMP280;47622;47.726;3.298;2023-03-01T11:43:32;99430.44;;;7.62
61703;BMP280;47622;47.726;3.298;2023-03-01T12:08:35;99399.97;;;7.91
61703;BMP280;47622;47.726;3.298;2023-03-01T12:14:09;99387.56;;;8.89
61703;BMP280;47622;47.726;3.298;2023-03-01T12:17:06;99390.88;;;8.47
61703;BMP280;47622;47.726;3.298;2023-03-01T12:41:47;99345.97;;;9.30
61703;BMP280;47622;47.726;3.298;2023-03-01T12:49:41;99339.00;;;8.83
61703;BMP280;47622;47.726;3.298;2023-03-01T12:52:33;99338.63;;;8.71
61703;BMP280;47622;47.726;3.298;2023-03-01T12:55:02;99334.38;;;7.69
61703;BMP280;47622;47.726;3.298;2023-03-01T12:57:40;99338.19;;;7.37
61703;BMP280;47622;47.726;3.298;2023-03-01T13:00:21;99350.25;;;7.28
61703;BMP280;47622;47.726;3.298;2023-03-01T13:02:54;99337.16;;;8.12
61703;BMP280;47622;47.726;3.298;2023-03-01T13:06:19;99323.84;;;8.37
61703;BMP280;47622;47.726;3.298;2023-03-01T13:08:27;99329.56;;;8.39
61703;BMP280;47622;47.726;3.298;2023-03-01T13:11:19;99334.28;;;7.40
61703;BMP280;47622;47.726;3.298;2023-03-01T13:13:45;99324.63;;;7.46
61703;BMP280;47622;47.726;3.298;2023-03-01T13:19:19;99329.84;;;7.46
61703;BMP280;47622;47.726;3.298;2023-03-01T13:21:46;99323.84;;;7.79
61703;BMP280;47622;47.726;3.298;2023-03-01T13:24:33;99322.84;;;7.70
61703;BMP280;47622;47.726;3.298;2023-03-01T13:29:47;99328.72;;;7.52
61703;BMP280;47622;47.726;3.298;2023-03-01T13:32:22;99323.16;;;7.97
61703;BMP280;47622;47.726;3.298;2023-03-01T13:34:53;99317.53;;;8.14
61703;BMP280;47622;47.726;3.298;2023-03-01T13:37:21;99304.44;;;7.90
61703;BMP280;47622;47.726;3.298;2023-03-01T13:39:47;99303.09;;;7.59
61703;BMP280;47622;47.726;3.298;2023-03-01T13:42:35;99311.72;;;7.93
61703;BMP280;47622;47.726;3.298;2023-03-01T13:45:04;99308.22;;;8.32
61703;BMP280;47622;47.726;3.298;2023-03-01T13:47:33;99300.06;;;7.81
61703;BMP280;47622;47.726;3.298;2023-03-01T13:50:01;99306.28;;;7.85
61703;BMP280;47622;47.726;3.298;2023-03-01T13:52:43;99305.81;;;7.43
61703;BMP280;47622;47.726;3.298;2023-03-01T13:57:39;99300.25;;;7.16
61703;BMP280;47622;47.726;3.298;2023-03-01T14:00:23;99298.06;;;7.28
61703;BMP280;47622;47.726;3.298;2023-03-01T14:03:00;99294.56;;;7.09
61703;BMP280;47622;47.726;3.298;2023-03-01T14:05:26;99292.66;;;7.59
61703;BMP280;47622;47.726;3.298;2023-03-01T14:07:52;99297.66;;;7.55
61703;BMP280;47622;47.726;3.298;2023-03-01T14:10:17;99290.63;;;7.56
61703;BMP280;47622;47.726;3.298;2023-03-01T14:13:31;99284.56;;;7.60
61703;BMP280;47622;47.726;3.298;2023-03-01T14:21:18;99288.19;;;7.30
61703;BMP280;47622;47.726;3.298;2023-03-01T14:23:43;99285.03;;;7.33
61703;BMP280;47622;47.726;3.298;2023-03-01T14:26:09;99284.53;;;7.26
61703;BMP280;47622;47.726;3.298;2023-03-01T14:28:38;99269.28;;;7.09
61703;BMP280;47622;47.726;3.298;2023-03-01T14:31:31;99280.78;;;7.42
61703;BMP280;47622;47.726;3.298;2023-03-01T14:33:58;99280.75;;;7.48
61703;BMP280;47622;47.726;3.298;2023-03-01T14:36:31;99270.81;;;7.50
61703;BMP280;47622;47.726;3.298;2023-03-01T14:38:57;99263.44;;;7.62
61703;BMP280;47622;47.726;3.298;2023-03-01T14:41:35;99270.44;;;7.27
61703;BMP280;47622;47.726;3.298;2023-03-01T14:44:07;99265.16;;;7.37
61703;BMP280;47622;47.726;3.298;2023-03-01T14:46:43;99241.13;;;7.01
61703;BMP280;47622;47.726;3.298;2023-03-01T14:49:18;99246.47;;;7.25
61703;BMP280;47622;47.726;3.298;2023-03-01T14:52:05;99245.41;;;7.31
61703;BMP280;47622;47.726;3.298;2023-03-01T14:54:41;99236.28;;;6.84
61703;BMP280;47622;47.726;3.298;2023-03-01T14:57:20;99243.25;;;6.99
61703;BMP280;47622;47.726;3.298;2023-03-01T14:59:47;99240.34;;;7.01
61703;BMP280;47622;47.726;3.298;2023-03-01T15:02:17;99236.84;;;6.76
61703;BMP280;47622;47.726;3.298;2023-03-01T15:04:54;99242.22;;;6.95
61703;BMP280;47622;47.726;3.298;2023-03-01T15:07:24;99241.41;;;7.05
61703;BMP280;47622;47.726;3.298;2023-03-01T15:09:52;99254.50;;;6.90
61703;BMP280;47622;47.726;3.298;2023-03-01T15:12:44;99247.06;;;6.68
61703;BMP280;47622;47.726;3.298;2023-03-01T15:15:31;99244.19;;;6.64
61703;BMP280;47622;47.726;3.298;2023-03-01T15:18:26;99248.31;;;6.75
61703;BMP280;47622;47.726;3.298;2023-03-01T15:20:53;99249.16;;;6.66
61703;BMP280;47622;47.726;3.298;2023-03-01T15:23:25;99247.84;;;6.63
61703;BMP280;47622;47.726;3.298;2023-03-01T15:25:53;99246.84;;;6.54
61703;BMP280;47622;47.726;3.298;2023-03-01T15:28:30;99256.09;;;6.85
61703;BMP280;47622;47.726;3.298;2023-03-01T15:31:04;99243.66;;;6.72
61703;BMP280;47622;47.726;3.298;2023-03-01T15:33:34;99241.56;;;6.64
61703;BMP280;47622;47.726;3.298;2023-03-01T15:36:02;99237.16;;;6.65
61703;BMP280;47622;47.726;3.298;2023-03-01T15:38:36;99232.75;;;6.60
61703;BMP280;47622;47.726;3.298;2023-03-01T15:43:50;99238.47;;;6.62
61703;BMP280;47622;47.726;3.298;2023-03-01T15:46:27;99232.22;;;6.63
61703;BMP280;47622;47.726;3.298;2023-03-01T15:48:57;99227.59;;;6.55
61703;BMP280;47622;47.726;3.298;2023-03-01T15:51:34;99217.75;;;6.32
61703;BMP280;47622;47.726;3.298;2023-03-01T15:54:21;99210.97;;;6.41
61703;BMP280;47622;47.726;3.298;2023-03-01T15:56:47;99212.78;;;6.40
61703;BMP280;47622;47.726;3.298;2023-03-01T15:59:13;99222.44;;;6.35
61703;BMP280;47622;47.726;3.298;2023-03-01T16:01:43;99200.59;;;6.25
61703;BMP280;47622;47.726;3.298;2023-03-01T16:04:13;99201.31;;;6.36
61703;BMP280;47622;47.726;3.298;2023-03-01T16:06:50;99194.03;;;6.33
61703;BMP280;47622;47.726;3.298;2023-03-01T16:09:23;99188.38;;;6.16
61703;BMP280;47622;47.726;3.298;2023-03-01T16:11:50;99199.81;;;6.25
61703;BMP280;47622;47.726;3.298;2023-03-01T16:14:16;99206.84;;;6.24